createdAt,value
2023-01-23T00:00:53.136Z,3.27
2023-01-23T00:03:57.801Z,3.60
2023-01-23T00:06:59.865Z,2.73
2023-01-23T00:10:01.872Z,3.03
2023-01-23T00:13:03.820Z,4.33
2023-01-23T00:16:10.737Z,3.23
2023-01-23T00:19:12.742Z,3.73
2023-01-23T00:22:16.180Z,4.03
2023-01-23T00:25:18.226Z,3.90
2023-01-23T00:28:20.191Z,4.60
2023-01-23T00:31:27.411Z,4.23
2023-01-23T00:34:29.503Z,3.30
2023-01-23T00:37:31.499Z,5.27
2023-01-23T00:40:34.786Z,3.83
2023-01-23T00:43:36.812Z,3.93
2023-01-23T00:46:38.928Z,3.30
2023-01-23T00:49:40.871Z,4.03
2023-01-23T00:52:42.823Z,4.23
2023-01-23T00:55:44.794Z,4.53
2023-01-23T00:58:47.343Z,4.43
2023-01-23T01:01:49.468Z,3.97
2023-01-23T01:04:51.395Z,3.13
2023-01-23T01:07:53.335Z,3.20
2023-01-23T01:10:55.375Z,4.40
2023-01-23T01:13:57.590Z,2.90
2023-01-23T01:16:59.573Z,3.87
2023-01-23T01:20:01.645Z,4.53
2023-01-23T01:23:03.653Z,3.20
2023-01-23T01:26:05.970Z,4.70
2023-01-23T01:29:07.918Z,4.53
2023-01-23T01:32:09.987Z,5.00
2023-01-23T01:35:12.320Z,4.10
2023-01-23T01:38:14.307Z,4.07
2023-01-23T01:41:16.910Z,5.03
2023-01-23T01:44:21.188Z,3.30
2023-01-23T01:47:23.381Z,3.40
2023-01-23T01:50:25.254Z,4.47
2023-01-23T01:53:29.723Z,4.20
2023-01-23T01:56:33.476Z,4.80
2023-01-23T01:59:56.172Z,4.10
2023-01-23T02:02:59.751Z,4.13
2023-01-23T02:06:02.267Z,4.17
2023-01-23T02:09:26.168Z,4.60
2023-01-23T02:12:28.620Z,4.40
2023-01-23T02:15:30.638Z,4.13
2023-01-23T02:18:35.858Z,3.93
2023-01-23T02:21:39.493Z,3.67
2023-01-23T02:24:48.357Z,3.47
2023-01-23T02:27:50.363Z,3.63
2023-01-23T02:30:52.986Z,3.70
2023-01-23T02:33:57.418Z,4.20
2023-01-23T02:37:00.110Z,4.80
2023-01-23T02:40:03.938Z,3.10
2023-01-23T02:43:08.277Z,4.27
2023-01-23T02:46:11.964Z,4.37
2023-01-23T02:49:14.204Z,4.30
2023-01-23T02:52:16.440Z,4.77
2023-01-23T02:55:18.483Z,4.87
2023-01-23T02:58:39.299Z,4.23
2023-01-23T03:01:41.302Z,4.20
2023-01-23T03:04:43.263Z,4.00
2023-01-23T03:07:45.934Z,3.93
2023-01-23T03:10:48.138Z,4.37
2023-01-23T03:13:50.150Z,4.33
2023-01-23T03:16:54.243Z,4.23
2023-01-23T03:19:58.298Z,4.33
2023-01-23T03:23:00.253Z,4.73
2023-01-23T03:26:02.472Z,4.30
2023-01-23T03:29:22.776Z,4.67
2023-01-23T03:32:26.358Z,4.17
2023-01-23T03:35:28.310Z,4.33
2023-01-23T03:38:30.322Z,4.40
2023-01-23T03:41:32.399Z,4.13
2023-01-23T03:44:34.692Z,4.53
2023-01-23T03:47:36.797Z,4.30
2023-01-23T03:50:38.833Z,5.30
2023-01-23T03:53:40.851Z,4.90
2023-01-23T03:56:43.365Z,4.33
2023-01-23T03:59:45.298Z,4.63
2023-01-23T04:02:47.306Z,4.37
2023-01-23T04:05:49.635Z,5.23
2023-01-23T04:08:51.840Z,5.10
2023-01-23T04:11:57.512Z,4.53
2023-01-23T04:14:59.574Z,4.50
2023-01-23T04:18:01.471Z,5.00
2023-01-23T04:21:04.712Z,4.50
2023-01-23T04:24:07.252Z,4.27
2023-01-23T04:27:09.691Z,3.90
2023-01-23T04:30:12.521Z,4.90
2023-01-23T04:33:14.845Z,4.53
2023-01-23T04:36:17.387Z,4.50
2023-01-23T04:39:19.853Z,4.53
2023-01-23T04:42:21.871Z,4.63
2023-01-23T04:45:24.182Z,5.17
2023-01-23T04:48:26.236Z,4.33
2023-01-23T04:51:28.230Z,4.73
2023-01-23T04:54:30.192Z,4.73
2023-01-23T04:57:32.625Z,4.80
2023-01-23T05:00:34.599Z,4.30
2023-01-23T05:03:37.689Z,4.30
2023-01-23T05:06:39.842Z,3.43
2023-01-23T05:09:42.048Z,4.10
2023-01-23T05:12:44.028Z,4.60
2023-01-23T05:15:46.091Z,4.60
2023-01-23T05:18:48.070Z,4.30
2023-01-23T05:21:50.369Z,4.50
2023-01-23T05:24:52.960Z,4.73
2023-01-23T05:27:55.217Z,4.83
2023-01-23T05:30:57.379Z,4.67
2023-01-23T05:33:59.559Z,4.17
2023-01-23T05:37:01.562Z,5.07
2023-01-23T05:40:05.185Z,5.20
2023-01-23T05:43:07.109Z,5.37
2023-01-23T05:46:09.192Z,4.97
2023-01-23T05:49:11.250Z,4.20
2023-01-23T05:52:13.290Z,4.80
2023-01-23T05:55:15.222Z,4.97
2023-01-23T05:58:17.527Z,5.47
2023-01-23T06:01:20.073Z,4.80
2023-01-23T06:04:22.313Z,4.83
2023-01-23T06:07:24.315Z,5.53
2023-01-23T06:10:26.961Z,4.77
2023-01-23T06:13:29.843Z,4.90
2023-01-23T06:16:32.271Z,4.63
2023-01-23T06:19:35.285Z,5.07
2023-01-23T06:22:37.837Z,5.20
2023-01-23T06:25:40.393Z,4.43
2023-01-23T06:28:42.958Z,5.17
2023-01-23T06:31:46.421Z,4.93
2023-01-23T06:34:48.384Z,4.60
2023-01-23T06:37:50.300Z,5.67
2023-01-23T06:40:52.968Z,4.80
2023-01-23T06:43:55.555Z,4.83
2023-01-23T06:46:58.188Z,4.83
2023-01-23T06:50:02.334Z,5.73
2023-01-23T06:53:05.681Z,4.33
2023-01-23T06:56:08.348Z,5.03
2023-01-23T06:59:11.184Z,5.23
2023-01-23T07:02:13.330Z,5.73
2023-01-23T07:05:15.375Z,5.37
2023-01-23T07:08:17.627Z,4.80
2023-01-23T07:11:20.186Z,5.47
2023-01-23T07:14:22.456Z,5.50
2023-01-23T07:17:24.833Z,5.20
2023-01-23T07:20:29.974Z,5.17
2023-01-23T07:23:32.095Z,4.90
2023-01-23T07:26:33.969Z,4.77
2023-01-23T07:29:35.899Z,4.47
2023-01-23T07:32:37.752Z,5.20
2023-01-23T07:35:40.592Z,4.60
2023-01-23T07:38:42.564Z,4.50
2023-01-23T07:41:46.353Z,4.60
2023-01-23T07:44:48.379Z,4.87
2023-01-23T07:47:51.105Z,4.57
2023-01-23T07:50:53.078Z,3.67
2023-01-23T07:53:55.072Z,3.90
2023-01-23T07:56:57.024Z,4.47
2023-01-23T07:59:58.957Z,3.73
2023-01-23T08:03:01.070Z,4.77
2023-01-23T08:06:03.024Z,4.53
2023-01-23T08:09:05.008Z,4.83
2023-01-23T08:12:07.333Z,5.00
2023-01-23T08:15:09.656Z,5.33
2023-01-23T08:18:11.582Z,5.47
2023-01-23T08:21:13.629Z,5.00
2023-01-23T08:24:16.128Z,5.33
2023-01-23T08:27:18.002Z,5.17
2023-01-23T08:30:20.308Z,4.63
2023-01-23T08:33:23.004Z,5.00
2023-01-23T08:36:25.479Z,6.03
2023-01-23T08:39:27.503Z,5.60
2023-01-23T08:42:29.682Z,5.83
2023-01-23T08:45:31.576Z,5.60
2023-01-23T08:48:36.074Z,6.20
2023-01-23T08:51:38.179Z,6.23
2023-01-23T08:54:40.137Z,8.13
2023-01-23T08:57:42.110Z,6.53
2023-01-23T09:00:44.184Z,6.90
2023-01-23T09:03:46.367Z,6.93
2023-01-23T09:06:48.334Z,7.37
2023-01-23T09:09:50.381Z,10.23
2023-01-23T09:12:53.461Z,11.13
2023-01-23T09:15:55.647Z,7.47
2023-01-23T09:18:57.724Z,6.60
2023-01-23T09:21:59.713Z,6.50
2023-01-23T09:25:05.133Z,15.73
2023-01-23T09:28:08.019Z,8.30
2023-01-23T09:31:12.899Z,7.77
2023-01-23T09:34:17.041Z,8.33
2023-01-23T09:37:19.339Z,8.63
2023-01-23T09:40:23.733Z,8.13
2023-01-23T09:43:32.865Z,7.87
2023-01-23T09:46:41.784Z,7.70
2023-01-23T09:49:50.284Z,8.30
2023-01-23T09:52:59.570Z,8.00
2023-01-23T09:56:30.642Z,6.77
2023-01-23T09:59:50.255Z,6.77
2023-01-23T10:03:06.588Z,6.83
2023-01-23T10:06:26.021Z,7.33
2023-01-23T10:09:39.980Z,8.27
2023-01-23T10:13:03.171Z,8.57
2023-01-23T10:16:24.152Z,8.13
2023-01-23T10:19:39.713Z,9.20
2023-01-23T10:23:03.091Z,8.70
2023-01-23T10:26:05.248Z,10.17
2023-01-23T10:29:31.391Z,10.00
2023-01-23T10:32:59.298Z,10.10
2023-01-23T10:36:09.188Z,10.30
2023-01-23T10:39:20.336Z,10.67
2023-01-23T10:42:24.399Z,9.80
2023-01-23T10:45:26.434Z,9.77
2023-01-23T10:48:48.170Z,9.80
2023-01-23T10:51:50.932Z,9.30
2023-01-23T10:54:53.145Z,10.90
2023-01-23T10:57:58.250Z,10.03
2023-01-23T11:01:00.575Z,10.57
2023-01-23T11:04:20.483Z,10.77
2023-01-23T11:07:33.807Z,10.27
2023-01-23T11:10:35.651Z,11.13
2023-01-23T11:13:38.246Z,11.67
2023-01-23T11:16:40.312Z,11.77
2023-01-23T11:19:42.842Z,9.53
2023-01-23T11:22:44.970Z,11.23
2023-01-23T11:25:51.991Z,10.07
2023-01-23T11:28:53.867Z,10.23
2023-01-23T11:32:03.771Z,11.23
2023-01-23T11:35:43.835Z,11.00
2023-01-23T11:38:52.740Z,10.73
2023-01-23T11:41:55.285Z,12.10
2023-01-23T11:45:00.074Z,12.30
2023-01-23T11:48:26.834Z,11.87
2023-01-23T11:51:28.808Z,11.87
2023-01-23T11:54:55.156Z,16.70
2023-01-23T11:58:27.436Z,16.57
2023-01-23T12:01:49.332Z,14.17
2023-01-23T12:05:20.987Z,12.03
2023-01-23T12:08:52.896Z,13.27
2023-01-23T12:12:19.287Z,13.13
2023-01-23T12:16:00.128Z,15.97
2023-01-23T12:19:29.134Z,13.50
2023-01-23T12:22:41.812Z,14.77
2023-01-23T12:25:51.648Z,15.03
2023-01-23T12:29:13.093Z,14.33
2023-01-23T12:32:53.159Z,14.70
2023-01-23T12:36:07.094Z,14.57
2023-01-23T12:39:32.099Z,15.37
2023-01-23T12:42:43.420Z,14.60
2023-01-23T12:45:58.605Z,15.77
2023-01-23T12:49:06.340Z,15.63
2023-01-23T12:52:38.563Z,13.97
2023-01-23T12:56:18.129Z,14.53
2023-01-23T12:59:35.740Z,13.87
2023-01-23T13:02:59.411Z,41.57
2023-01-23T13:06:01.391Z,67.37
2023-01-23T13:09:18.392Z,42.37
2023-01-23T13:12:28.501Z,18.20
2023-01-23T13:15:40.470Z,14.93
2023-01-23T13:19:41.833Z,15.83
2023-01-23T13:22:43.753Z,14.17
2023-01-23T13:25:46.099Z,14.13
2023-01-23T13:28:49.008Z,14.63
2023-01-23T13:31:53.190Z,15.33
2023-01-23T13:34:55.531Z,15.77
2023-01-23T13:37:59.654Z,14.60
2023-01-23T13:41:18.835Z,16.47
2023-01-23T13:44:35.871Z,15.03
2023-01-23T14:25:34.320Z,17.07
2023-01-23T14:28:36.456Z,16.37
2023-01-23T14:31:42.862Z,16.77
2023-01-23T14:34:45.271Z,17.17
2023-01-23T14:37:48.115Z,17.57
2023-01-23T14:40:51.329Z,18.17
2023-01-23T14:43:55.300Z,17.67
2023-01-23T14:46:59.281Z,17.20
2023-01-23T14:50:02.447Z,16.87
2023-01-23T14:53:15.088Z,17.47
2023-01-23T14:56:17.587Z,17.60
2023-01-23T14:59:30.555Z,17.10
2023-01-23T15:02:36.640Z,17.43
2023-01-23T15:05:41.135Z,16.13
2023-01-23T15:08:43.631Z,16.17
2023-01-23T15:11:46.010Z,17.43
2023-01-23T15:14:53.037Z,17.70
2023-01-23T15:17:59.915Z,17.17
2023-01-23T15:21:08.176Z,17.17
2023-01-23T15:24:10.150Z,22.30
2023-01-23T15:27:26.269Z,20.63
2023-01-23T15:30:41.906Z,17.83
2023-01-23T15:33:45.472Z,17.67
2023-01-23T15:36:57.277Z,18.07
2023-01-23T15:40:03.041Z,18.60
2023-01-23T15:43:10.436Z,17.40
2023-01-23T15:46:14.299Z,18.60
2023-01-23T15:49:25.517Z,17.70
2023-01-23T15:52:31.000Z,17.87
2023-01-23T15:55:33.151Z,17.43
2023-01-23T15:58:35.098Z,18.17
2023-01-23T16:01:37.146Z,16.77
2023-01-23T16:04:39.709Z,17.97
2023-01-23T16:07:43.547Z,18.70
2023-01-23T16:10:47.428Z,18.03
2023-01-23T16:13:49.352Z,18.10
2023-01-23T16:16:51.481Z,19.90
2023-01-23T16:19:54.601Z,19.27
2023-01-23T16:23:14.173Z,18.93
2023-01-23T16:26:22.354Z,19.17
2023-01-23T16:29:29.549Z,19.93
2023-01-23T16:32:31.703Z,19.67
2023-01-23T16:35:34.372Z,18.53
2023-01-23T16:38:36.324Z,17.83
2023-01-23T16:41:39.093Z,17.63
2023-01-23T16:44:40.993Z,18.83
2023-01-23T16:47:43.133Z,18.57
2023-01-23T16:50:48.119Z,18.47
2023-01-23T16:53:53.974Z,16.37
2023-01-23T16:56:57.587Z,17.83
2023-01-23T16:59:59.893Z,18.43
2023-01-23T17:03:04.756Z,18.57
2023-01-23T17:06:11.341Z,20.57
2023-01-23T17:09:14.313Z,21.47
2023-01-23T17:12:19.306Z,18.43
2023-01-23T17:15:23.924Z,18.33
2023-01-23T17:18:28.131Z,19.23
2023-01-23T17:21:33.685Z,19.80
2023-01-23T17:24:36.184Z,18.77
2023-01-23T17:27:45.015Z,21.23
2023-01-23T17:30:50.945Z,20.03
2023-01-23T17:33:52.990Z,18.63
2023-01-23T17:36:57.443Z,18.70
2023-01-23T17:39:59.728Z,17.97
2023-01-23T17:43:01.769Z,17.60
2023-01-23T17:46:04.990Z,17.37
2023-01-23T17:49:28.685Z,17.50
2023-01-23T17:52:31.311Z,21.63
2023-01-23T17:55:33.484Z,19.83
2023-01-23T17:58:35.467Z,18.77
2023-01-23T18:01:37.921Z,20.17
2023-01-23T18:04:40.381Z,17.30
2023-01-23T18:07:53.299Z,17.53
2023-01-23T18:10:59.381Z,20.03
2023-01-23T18:14:43.092Z,19.20
2023-01-23T18:17:56.657Z,17.67
2023-01-23T18:20:59.903Z,17.50
2023-01-23T18:24:02.086Z,20.40
2023-01-23T18:31:05.068Z,26.70
2023-01-23T18:34:18.597Z,28.27
2023-01-23T18:37:35.698Z,27.77
2023-01-23T18:41:19.177Z,27.77
2023-01-23T18:44:25.658Z,23.53
2023-01-23T18:47:28.140Z,23.37
2023-01-23T18:50:30.577Z,23.47
2023-01-23T18:53:56.218Z,22.57
2023-01-23T18:57:35.834Z,23.57
2023-01-23T19:00:45.815Z,22.80
2023-01-23T19:03:49.150Z,24.03
2023-01-23T19:06:51.641Z,23.97
2023-01-23T19:09:53.882Z,23.53
2023-01-23T19:13:00.123Z,25.20
2023-01-23T19:16:13.569Z,21.73
2023-01-23T19:19:19.757Z,21.30
2023-01-23T19:22:22.945Z,22.87
2023-01-23T19:25:25.197Z,21.23
2023-01-23T19:28:27.381Z,19.43
2023-01-23T19:31:31.330Z,21.17
2023-01-23T19:34:35.153Z,20.87
2023-01-23T19:37:40.214Z,20.83
2023-01-23T19:40:43.250Z,19.63
2023-01-23T19:43:49.503Z,20.00
2023-01-23T19:46:52.466Z,19.37
2023-01-23T19:49:54.552Z,20.67
2023-01-23T19:52:57.459Z,20.37
2023-01-23T19:56:01.650Z,19.73
2023-01-23T19:59:03.665Z,20.03
2023-01-23T20:02:25.313Z,19.83
2023-01-23T20:05:27.956Z,21.17
2023-01-23T20:08:29.894Z,20.00
2023-01-23T20:11:31.925Z,19.73
2023-01-23T20:14:33.890Z,18.03
2023-01-23T20:17:35.923Z,19.80
2023-01-23T20:20:37.919Z,20.33
2023-01-23T20:23:39.902Z,17.30
2023-01-23T20:26:42.587Z,17.07
2023-01-23T20:29:44.753Z,17.20
2023-01-23T20:32:46.794Z,16.87
2023-01-23T20:35:52.181Z,17.70
2023-01-23T20:38:54.787Z,17.77
2023-01-23T20:41:57.052Z,16.23
2023-01-23T20:44:58.939Z,15.87
2023-01-23T20:48:01.161Z,14.93
2023-01-23T20:51:03.463Z,16.23
2023-01-23T20:54:05.914Z,16.50
2023-01-23T20:57:08.063Z,15.43
2023-01-23T21:00:11.027Z,15.07
2023-01-23T21:03:13.113Z,16.93
2023-01-23T21:06:15.724Z,16.03
2023-01-23T21:09:18.277Z,16.60
2023-01-23T21:12:23.290Z,15.80
2023-01-23T21:15:28.347Z,15.53
2023-01-23T21:18:30.913Z,16.83
2023-01-23T21:21:32.976Z,15.77
2023-01-23T21:24:36.680Z,15.57
2023-01-23T21:27:38.617Z,15.10
2023-01-23T21:30:42.247Z,15.00
2023-01-23T21:33:45.063Z,16.07
2023-01-23T21:36:47.027Z,16.17
2023-01-23T21:39:49.078Z,17.40
2023-01-23T21:42:51.951Z,18.73
2023-01-23T21:45:53.862Z,18.30
2023-01-23T21:48:56.358Z,18.87
2023-01-23T21:51:58.413Z,18.60
2023-01-23T21:55:00.615Z,18.77
2023-01-23T21:58:02.525Z,17.80
2023-01-23T22:01:26.480Z,17.73
2023-01-23T22:04:29.575Z,17.07
2023-01-23T22:07:32.570Z,17.17
2023-01-23T22:10:34.813Z,16.20
2023-01-23T22:13:37.298Z,15.93
2023-01-23T22:16:54.590Z,16.97
2023-01-23T22:19:56.681Z,17.53
2023-01-23T22:22:58.987Z,16.57
2023-01-23T22:26:07.856Z,16.23
2023-01-23T22:29:12.272Z,16.97
2023-01-23T22:32:14.695Z,17.33
2023-01-23T22:35:17.169Z,16.90
2023-01-23T22:38:19.330Z,16.17
2023-01-23T22:41:22.149Z,16.50
2023-01-23T22:44:24.510Z,17.30
2023-01-23T22:47:26.504Z,16.43
2023-01-23T22:50:29.775Z,15.83
2023-01-23T22:53:32.160Z,15.73
2023-01-23T22:56:34.299Z,17.10
2023-01-23T22:59:36.209Z,16.10
2023-01-23T23:02:40.028Z,15.93
2023-01-23T23:05:41.969Z,17.30
2023-01-23T23:08:47.675Z,15.40
2023-01-23T23:11:52.091Z,15.67
2023-01-23T23:14:54.003Z,15.10
2023-01-23T23:17:55.912Z,13.87
2023-01-23T23:21:02.551Z,13.97
2023-01-23T23:24:07.540Z,14.00
2023-01-23T23:27:09.561Z,12.93
2023-01-23T23:30:12.223Z,12.17
2023-01-23T23:33:14.327Z,11.30
2023-01-23T23:36:16.412Z,11.03
2023-01-23T23:39:19.119Z,11.20
2023-01-23T23:42:21.050Z,13.33
2023-01-23T23:45:23.333Z,12.93
2023-01-23T23:48:26.139Z,14.27
2023-01-23T23:51:28.170Z,14.20
2023-01-23T23:54:30.139Z,14.60
2023-01-23T23:57:32.273Z,14.50
